Main page
METAR-TAF:

METAR-TAF

Airports :

Wattay International Airport

Vientiane, Laos

latitude: 17-57N, longitude: 102-34E, elevation: 171 m

Current weather observation

The report was made 24 minutes ago, at 05:30 UTC
Wind 2 kt from the West
Temperature 24°C
Humidity 29%
Pressure 1022 hPa
Visibility: 8000 m

METAR: VLVT 060530Z 27002KT 8000 NSC 24/05 Q1022 NOSIG

Time: 12:54 (05:54 UTC)

Forecast

The report was made 54 minutes ago, at 05:00 UTC
Forecast valid from 06 at 06 UTC to 07 at 06 UTC
Wind 6 kt from the North
Visibility: 8000 m
Few clouds at a height of 5000 ft

TAF: VLVT 060500Z 0606/0706 36006KT 8000 FEW050

Weather observations and forecasts of more than 4000 airports (METAR and TAF reports).

The available stations are represented by yellow and red dots on the map.

Hover mouse over dot to see the name of the station.

Then click to see weather observations and forecasts.

To change the map : click on the green buttons with a black cross to zoom in, on the green button with a dash to zoom out, or on the green arrows for adjacent maps.


METAR-TAF: